x

Tanner Bank - 121nm West Of San Diego, Ca (46047) Wave Buoy

12:50 - Sat 5th Sep 2015 All times are PDT. -7 hours from GMT.

  • Sig Wave height 6.9ft
  • Swell Direction
  • Peak Period 10s
  • Average Period 6s
  • Wind
    18mph, 22mph gusts
  • Sea Temp 68°f
  • Luft Temp 65°f
  • Sea Pressure 1012.5mb
  • Tanner Bank - 121nm West Of San Diego, Ca
  • Tanner Bank - 121nm West Of San Diego, Ca

More Historic Weather Station data

Upgrade to MSW Pro to gain access to the past 30 days of data for over 8000 Wavebouys and Weather Stations around the globe.

Join Pro

Comparision Forecast

View Surf forecast
   
Sa 09/05 12:50 7ft 10s 6s 18 22 mph 1012.5mb 68f 65f
Fr 09/04 11:50 7ft 9s 6s 18 22 mph 1012.5mb 68f 65f
10:50 7ft 11s 6s 18 22 mph 1012.4mb 68f 65f
9:50 7ft 11s 6s 18 22 mph 1011.8mb 68f 65f
8:50  -   -   -  18 25 mph 1011.5mb 68f 65f
7:50 7ft 11s 6s 20 25 mph 1011mb 68f 65f
6:50 7ft 13s 6s 20 25 mph 1011.1mb 69f 65f
5:50 7ft 9s 6s 18 22 mph 1011.4mb 69f 65f
4:50 6ft 7s 6s 18 20 mph 1011.5mb 69f 65f
3:50 6.5ft 10s 6s 18 20 mph 1011.5mb 69f 65f
2:50 6ft 11s 6s 18 22 mph 1011.9mb 69f 65f
1:50 6ft 8s 6s 16 20 mph 1012.4mb 68f 66f
12:50 6ft 7s 6s 16 20 mph 1012.9mb 68f 65f
11:50 6ft 12s 7s 16 18 mph 1013mb 68f 65f
10:50 6ft 12s 6s 16 18 mph 1013.4mb 68f 65f
9:50 5.5ft 11s 6s 16 18 mph 1013.1mb 68f 65f
8:50 6ft 11s 6s 16 20 mph 1012.8mb 68f 65f
7:50 5.5ft 11s 6s 16 20 mph 1012.5mb 68f 66f
6:50 5.5ft 12s 6s 16 20 mph 1012mb 68f 65f
5:50 6ft 12s 6s 13 16 mph 1011.6mb 68f 65f
4:50 6ft 11s 6s 16 20 mph 1011.1mb 68f 65f
3:50 6ft 11s 6s 16 20 mph 1011.2mb 68f 65f
2:50 6ft 12s 6s 18 22 mph 1011.5mb 68f 65f
1:50 6ft 11s 6s 18 22 mph 1011.5mb 68f 65f
12:50 5ft 11s 6s 16 18 mph 1011.9mb 68f 66f
Do 09/03 11:50 5ft 11s 7s 16 18 mph 1011.9mb 68f 66f
10:50 5ft 11s 6s 13 16 mph 1011.8mb 68f 67f
9:50 5ft 11s 7s 13 16 mph 1011.7mb 68f 67f
8:50 4.5ft 11s 6s 11 13 mph 1011.2mb 69f 67f
7:50 5ft 12s 6s 13 18 mph 1010.6mb 69f 67f
6:50 5ft 11s 6s 11 13 mph 1010.4mb 69f 67f
5:50 5ft 12s 6s 13 18 mph 1010.7mb 69f 67f
4:50 5ft 11s 7s 13 18 mph 1010.9mb 69f 67f
3:50 5ft 11s 7s 11 16 mph 1011.3mb 69f 67f
2:50 4.5ft 11s 7s 9 11 mph 1012.2mb 69f 67f
1:50 4.5ft 12s 7s 16 18 mph 1012.6mb 69f 67f
12:50 4.5ft 11s 7s 9 11 mph 1013mb 69f 68f
11:50 5ft 11s 8s 11 13 mph 1013.5mb 68f 67f
10:50 5ft 11s 8s 11 16 mph 1013.9mb 68f 68f
9:50 5ft 11s 8s 11 13 mph 1013.9mb 68f 68f
8:50 5ft 12s 8s 13 16 mph 1013.7mb 68f 67f
7:50 5ft 12s 8s 11 13 mph 1013.5mb 68f 67f
6:50 5ft 11s 8s 7 9 mph 1013.1mb 68f 67f
5:50 5ft 11s 8s 11 13 mph 1012.8mb 68f 67f
4:50 5ft 12s 7s 11 13 mph 1012.9mb 68f 67f
3:50 5ft 11s 7s 11 13 mph 1013.1mb 68f 67f
2:50 5ft 12s 7s 11 13 mph 1013mb 69f 67f
1:50 5ft 12s 7s 13 18 mph 1013mb 69f 67f
12:50 5ft 11s 7s 11 13 mph 1013.6mb 69f 67f
Mi 09/02 11:50 5ft 13s 8s 13 16 mph 1013.7mb 69f 67f
10:50 5ft 11s 8s 11 16 mph 1013.7mb 69f 67f
9:50 5ft 11s 8s 9 11 mph 1013.6mb 69f 67f
8:50 5ft 11s 8s 11 13 mph 1013.2mb 69f 67f
7:50 5ft 12s 8s 11 13 mph 1012.7mb 69f 67f
6:50 5.5ft 12s 8s 9 11 mph 1012.7mb 70f 67f
5:50 5.5ft 12s 8s 9 11 mph 1012.7mb 70f 67f
4:50 5ft 11s 8s 7 9 mph 1012.9mb 70f 67f
3:50 5.5ft 11s 8s 9 11 mph 1013.3mb 70f 68f
2:50 5ft 11s 8s 7 9 mph 1014mb 70f 68f
1:50 6ft 11s 8s 7 11 mph 1014.5mb 70f 67f
12:50 5ft 14s 8s 7 9 mph 1014.8mb 69f 67f
11:50 5ft 11s 8s 7 9 mph 1015.3mb 69f 67f
10:50 5ft 11s 8s 7 9 mph 1015.4mb 69f 67f
9:50 5ft 12s 8s 7 9 mph 1015.3mb 69f 67f
8:50 6ft 11s 9s 4 7 mph 1015.2mb 69f 67f
7:50 6ft 11s 8s 9 11 mph 1014.9mb 69f 67f
6:50 5ft 11s 8s 7 9 mph 1014.5mb 69f 67f
5:50 5.5ft 11s 8s 9 11 mph 1014.1mb 69f 67f
4:50 5.5ft 11s 8s 7 9 mph 1013.9mb 69f 67f
3:50 5.5ft 11s 8s 9 11 mph 1014.1mb 69f 67f
2:50 6.5ft 11s 8s 11 13 mph 1014.3mb 69f 67f
1:50 5.5ft 11s 8s 9 13 mph 1014.4mb 69f 67f
12:50 6ft 12s 8s 9 11 mph 1014.3mb 69f 67f
Di 09/01 11:50 6ft 11s 7s 9 11 mph 1014.5mb 69f 67f
10:50 6ft 11s 7s 13 18 mph 1014mb 69f 67f
9:50 6.5ft 12s 8s 13 16 mph 1014.1mb 69f 67f
8:50 6ft 11s 7s 13 16 mph 1014mb 69f 67f
7:50 6ft 14s 7s 16 18 mph 1013.3mb 69f 66f
6:50 7ft 14s 8s 13 18 mph 1012.8mb 69f 66f
5:50 7ft 13s 8s 16 18 mph 1012.4mb 69f 66f
4:50 7ft 11s 8s 13 18 mph 1012.5mb 69f 66f
3:50 7ft 12s 8s 11 16 mph 1013.1mb 69f 66f
2:50 8ft 13s 8s 11 13 mph 1013.4mb 69f 66f
1:50 7ft 11s 8s 9 13 mph 1013.9mb 69f 66f
12:50 7ft 14s 8s 9 13 mph 1014.1mb 69f 66f
11:50 7ft 14s 8s 11 13 mph 1014.4mb 69f 66f
10:50 6.5ft 15s 8s 11 16 mph 1014.4mb 69f 66f
9:50 7.5ft 14s 8s 13 16 mph 1014.1mb 69f 66f
8:50 7ft 14s 7s 11 16 mph 1013.9mb 69f 66f